Terminal Aerodrome Forecast
Issued by NWS North Platte, NE

Home | Current Version | Previous Version | Graphics & Text | Print | Product List | Glossary On
Versions: 1 2 3 4 5 6 7 8 9 10 11 12 13 14 15 16 17 18
000
FTUS43 KLBF 271721
TAFVTN
TAF
KVTN 271721Z 2718/2818 08007KT P6SM BKN130
     FM280200 09008KT P6SM VCSH BKN060
     FM281000 07010KT P6SM VCSH OVC030
     FM281400 06012G19KT P6SM OVC035=

USA.gov is the U.S. government's official web portal to all federal, state and local government web resources and services.